Time;durP1;ratioP1;P1;durP2;ratioP2;P2;SDS_P1;SDS_P2;PMS_P1;PMS_P2;Temp;Humidity;BMP_temperature;BMP_pressure;BME280_temperature;BME280_humidity;BME280_pressure;Samples;Min_cycle;Max_cycle;Signal;HPM_P1;HPM_P2
2022/10/22 00:01:53;;;;;;;25.95;17.02;;;;;;;;;;5153213;27;20058;-70
2022/10/22 00:04:19;;;;;;;25.38;15.13;;;;;;;;;;5164539;27;20113;-69
2022/10/22 00:06:46;;;;;;;26.58;16.92;;;;;;;;;;5174396;27;20438;-70
2022/10/22 00:09:12;;;;;;;26.08;15.35;;;;;;;;;;5173874;27;20046;-70
2022/10/22 00:11:38;;;;;;;27.40;17.17;;;;;;;;;;5170257;27;20061;-69
2022/10/22 00:14:04;;;;;;;;;;;;;;;;;;5166831;27;20049;-71
2022/10/22 00:16:30;;;;;;;30.13;17.35;;;;;;;;;;5156810;27;20010;-71
2022/10/22 00:18:57;;;;;;;28.17;16.58;;;;;;;;;;5182212;27;20134;-72
2022/10/22 00:21:24;;;;;;;24.15;15.77;;;;;;;;;;5165776;27;20045;-70
2022/10/22 00:23:50;;;;;;;31.25;17.55;;;;;;;;;;5156528;27;20055;-71
2022/10/22 00:26:16;;;;;;;31.23;17.17;;;;;;;;;;5148106;27;20058;-69
2022/10/22 00:28:42;;;;;;;26.10;15.40;;;;;;;;;;5173599;27;20061;-70
2022/10/22 00:31:09;;;;;;;27.70;17.50;;;;;;;;;;5156721;27;20095;-70
2022/10/22 00:33:35;;;;;;;27.27;16.90;;;;;;;;;;5134165;27;20111;-70
2022/10/22 00:36:01;;;;;;;27.52;17.40;;;;;;;;;;5161593;27;20074;-70
2022/10/22 00:38:27;;;;;;;24.05;14.70;;;;;;;;;;5160117;27;20045;-70
2022/10/22 00:40:53;;;;;;;24.67;15.00;;;;;;;;;;5161528;27;20087;-70
2022/10/22 00:43:19;;;;;;;28.35;16.75;;;;;;;;;;5153682;27;20046;-70
2022/10/22 00:45:46;;;;;;;24.60;15.70;;;;;;;;;;5166459;27;20132;-70
2022/10/22 00:48:19;;;;;;;26.95;15.52;;;;;;;;;;5173769;27;20086;-70
2022/10/22 00:50:54;;;;;;;25.50;16.10;;;;;;;;;;5147698;27;20045;-70
2022/10/22 00:53:21;;;;;;;26.00;16.73;;;;;;;;;;5164196;27;20484;-70
2022/10/22 00:55:50;;;;;;;27.05;16.63;;;;;;;;;;5172968;27;20464;-70
2022/10/22 00:58:17;;;;;;;29.75;17.08;;;;;;;;;;5142430;27;20051;-70
2022/10/22 01:00:43;;;;;;;26.17;16.35;;;;;;;;;;5152731;27;20111;-70
2022/10/22 01:03:09;;;;;;;29.70;17.55;;;;;;;;;;5153285;27;20054;-69
2022/10/22 01:05:49;;;;;;;30.23;16.35;;;;;;;;;;5152675;27;20118;-70
2022/10/22 01:08:22;;;;;;;27.45;16.40;;;;;;;;;;5157467;27;20045;-70
2022/10/22 01:10:51;;;;;;;28.77;17.45;;;;;;;;;;5171929;27;20505;-70
2022/10/22 01:13:25;;;;;;;25.33;16.48;;;;;;;;;;5169624;27;20042;-70
2022/10/22 01:15:51;;;;;;;23.40;15.98;;;;;;;;;;5151829;27;20052;-70
2022/10/22 01:18:21;;;;;;;27.55;17.05;;;;;;;;;;5152608;27;20051;-70
2022/10/22 01:20:56;;;;;;;24.58;16.77;;;;;;;;;;5132974;27;20064;-70
2022/10/22 01:23:22;;;;;;;26.83;16.48;;;;;;;;;;5151924;27;20431;-71
2022/10/22 01:26:03;;;;;;;25.80;15.85;;;;;;;;;;5152775;27;20459;-70
2022/10/22 01:28:48;;;;;;;22.85;16.10;;;;;;;;;;5151900;27;20541;-70
2022/10/22 01:31:16;;;;;;;25.90;15.73;;;;;;;;;;5152359;27;20130;-70
2022/10/22 01:33:43;;;;;;;27.48;16.30;;;;;;;;;;5153046;27;20047;-70
2022/10/22 01:36:10;;;;;;;27.15;16.05;;;;;;;;;;5152322;27;20042;-69
2022/10/22 01:38:37;;;;;;;23.63;16.08;;;;;;;;;;5152282;27;20087;-69
2022/10/22 01:41:03;;;;;;;29.05;16.38;;;;;;;;;;5151231;27;20467;-69
2022/10/22 01:43:29;;;;;;;24.40;16.25;;;;;;;;;;5152405;27;20047;-69
2022/10/22 01:46:00;;;;;;;27.70;16.15;;;;;;;;;;5152480;27;20133;-68
2022/10/22 01:48:34;;;;;;;24.33;15.35;;;;;;;;;;5161933;27;20061;-68
2022/10/22 01:51:18;;;;;;;24.17;14.05;;;;;;;;;;5154370;27;20050;-70
2022/10/22 01:53:50;;;;;;;24.38;15.43;;;;;;;;;;5152313;27;20076;-69
2022/10/22 01:56:22;;;;;;;27.02;14.65;;;;;;;;;;5152324;27;20051;-69
2022/10/22 01:58:48;;;;;;;21.80;13.80;;;;;;;;;;5133867;27;20066;-69
2022/10/22 02:01:26;;;;;;;23.02;13.63;;;;;;;;;;5153959;27;20111;-69
2022/10/22 02:03:56;;;;;;;23.55;13.98;;;;;;;;;;5172159;27;20394;-69
2022/10/22 02:06:23;;;;;;;22.75;13.55;;;;;;;;;;5165030;27;20415;-69
2022/10/22 02:08:50;;;;;;;22.45;13.65;;;;;;;;;;5152552;27;20051;-69
2022/10/22 02:11:16;;;;;;;24.17;13.60;;;;;;;;;;5153487;27;20046;-69
2022/10/22 02:13:44;;;;;;;23.85;14.23;;;;;;;;;;5152541;27;20126;-68
2022/10/22 02:16:13;;;;;;;22.30;13.23;;;;;;;;;;5159915;27;20170;-71
2022/10/22 02:18:42;;;;;;;22.60;13.00;;;;;;;;;;5151600;27;20038;-69
2022/10/22 02:21:09;;;;;;;25.38;13.48;;;;;;;;;;5150769;27;20046;-68
2022/10/22 02:23:35;;;;;;;23.40;13.52;;;;;;;;;;5171810;27;20091;-69
2022/10/22 02:26:21;;;;;;;22.08;13.57;;;;;;;;;;5170496;27;20053;-69
2022/10/22 02:28:53;;;;;;;21.13;12.37;;;;;;;;;;5134432;27;20065;-70
2022/10/22 02:31:22;;;;;;;22.67;12.65;;;;;;;;;;5151073;27;20179;-70
2022/10/22 02:33:50;;;;;;;25.30;14.35;;;;;;;;;;5151232;27;20470;-71
2022/10/22 02:36:17;;;;;;;30.05;13.88;;;;;;;;;;5150845;27;20106;-71
2022/10/22 02:38:43;;;;;;;24.88;14.70;;;;;;;;;;5163817;27;20046;-70
2022/10/22 02:41:10;;;;;;;29.30;14.10;;;;;;;;;;5156993;27;20046;-71
2022/10/22 02:43:41;;;;;;;25.35;15.30;;;;;;;;;;5151187;27;20046;-69
2022/10/22 02:46:07;;;;;;;27.17;14.10;;;;;;;;;;5150342;27;20050;-70
2022/10/22 02:48:33;;;;;;;;;;;;;;;;;;5152343;27;20042;-69
2022/10/22 02:50:59;;;;;;;30.30;14.57;;;;;;;;;;5157882;27;19929;-70
2022/10/22 02:53:25;;;;;;;25.92;14.38;;;;;;;;;;5150933;27;20363;-69
2022/10/22 02:55:51;;;;;;;23.98;15.07;;;;;;;;;;5150777;27;20102;-69
2022/10/22 02:58:17;;;;;;;24.65;13.52;;;;;;;;;;5149703;27;20054;-69
2022/10/22 03:00:43;;;;;;;23.90;14.13;;;;;;;;;;5148807;27;20455;-69
2022/10/22 03:03:09;;;;;;;24.70;13.77;;;;;;;;;;5150030;27;20080;-70
2022/10/22 03:05:35;;;;;;;22.17;13.65;;;;;;;;;;5150529;27;20069;-69
2022/10/22 03:08:01;;;;;;;27.38;14.45;;;;;;;;;;5150074;27;20095;-68
2022/10/22 03:10:27;;;;;;;25.20;13.32;;;;;;;;;;5150929;27;20128;-69
2022/10/22 03:12:54;;;;;;;19.08;12.63;;;;;;;;;;5147251;27;20443;-69
2022/10/22 03:15:20;;;;;;;23.40;13.13;;;;;;;;;;5170093;27;20391;-68
2022/10/22 03:17:47;;;;;;;23.60;13.52;;;;;;;;;;5174100;27;20262;-70
2022/10/22 03:20:13;;;;;;;23.52;13.63;;;;;;;;;;5162420;27;20179;-71
2022/10/22 03:22:40;;;;;;;24.63;13.50;;;;;;;;;;5152155;27;20066;-71
2022/10/22 03:25:08;;;;;;;22.63;12.25;;;;;;;;;;5163545;27;20038;-70
2022/10/22 03:27:36;;;;;;;25.92;12.32;;;;;;;;;;5156654;27;20191;-70
2022/10/22 03:30:03;;;;;;;25.30;13.02;;;;;;;;;;5159878;27;20053;-71
2022/10/22 03:32:29;;;;;;;25.13;13.77;;;;;;;;;;5167691;27;20583;-71
2022/10/22 03:34:55;;;;;;;24.98;13.48;;;;;;;;;;5164617;27;20186;-71
2022/10/22 03:37:22;;;;;;;24.08;13.93;;;;;;;;;;5162996;27;20211;-70
2022/10/22 03:39:48;;;;;;;27.40;13.80;;;;;;;;;;5131906;27;20354;-70
2022/10/22 03:42:15;;;;;;;30.23;14.30;;;;;;;;;;5149935;27;20042;-71
2022/10/22 03:44:41;;;;;;;25.08;13.95;;;;;;;;;;5151795;27;20070;-70
2022/10/22 03:47:07;;;;;;;;;;;;;;;;;;5149702;27;20095;-71
2022/10/22 03:49:33;;;;;;;26.00;15.00;;;;;;;;;;5152219;27;20018;-72
2022/10/22 03:52:10;;;;;;;24.90;14.73;;;;;;;;;;5150443;27;20042;-71
2022/10/22 03:54:36;;;;;;;;;;;;;;;;;;5150040;27;20081;-71
2022/10/22 03:57:02;;;;;;;24.40;13.75;;;;;;;;;;5150264;27;20002;-69
2022/10/22 03:59:28;;;;;;;26.73;13.27;;;;;;;;;;5132201;27;20043;-73
2022/10/22 04:01:54;;;;;;;25.65;14.38;;;;;;;;;;5151295;27;20042;-71
2022/10/22 04:04:20;;;;;;;27.48;13.60;;;;;;;;;;5148620;27;20138;-71
2022/10/22 04:06:46;;;;;;;25.92;13.30;;;;;;;;;;5150563;27;20186;-71
2022/10/22 04:09:12;;;;;;;26.25;13.27;;;;;;;;;;5154678;27;20038;-71
2022/10/22 04:11:38;;;;;;;23.63;13.18;;;;;;;;;;5170652;27;20042;-71
2022/10/22 04:14:05;;;;;;;31.58;13.70;;;;;;;;;;5170634;27;20114;-73
2022/10/22 04:16:31;;;;;;;22.38;13.25;;;;;;;;;;5152751;27;20050;-73
2022/10/22 04:18:57;;;;;;;25.90;13.90;;;;;;;;;;5149605;27;20114;-72
2022/10/22 04:21:24;;;;;;;25.52;12.90;;;;;;;;;;5170150;27;20106;-75
2022/10/22 04:23:50;;;;;;;;;;;;;;;;;;5169783;27;20042;-72
2022/10/22 04:26:17;;;;;;;24.10;13.75;;;;;;;;;;5158920;27;19923;-71
2022/10/22 04:28:43;;;;;;;22.92;13.65;;;;;;;;;;5149528;27;20435;-71
2022/10/22 04:31:11;;;;;;;25.02;13.85;;;;;;;;;;5164237;27;20429;-71
2022/10/22 04:33:37;;;;;;;25.52;13.88;;;;;;;;;;5170624;27;20107;-71
2022/10/22 04:36:07;;;;;;;30.17;14.80;;;;;;;;;;5165888;27;20045;-68
2022/10/22 04:38:33;;;;;;;26.50;13.45;;;;;;;;;;5149439;27;20047;-73
2022/10/22 04:41:07;;;;;;;26.42;13.43;;;;;;;;;;5149535;27;20070;-70
2022/10/22 04:43:33;;;;;;;25.05;14.32;;;;;;;;;;5149462;27;20097;-72
2022/10/22 04:46:00;;;;;;;27.63;14.68;;;;;;;;;;5151109;27;20042;-73
2022/10/22 04:48:26;;;;;;;;;;;;;;;;;;5154563;27;20078;-72
2022/10/22 04:50:52;;;;;;;25.20;14.68;;;;;;;;;;5154004;27;19926;-71
2022/10/22 04:53:18;;;;;;;26.85;15.20;;;;;;;;;;5152876;27;20046;-72
2022/10/22 04:55:44;;;;;;;23.70;14.13;;;;;;;;;;5134556;27;20129;-72
2022/10/22 04:58:10;;;;;;;26.20;14.27;;;;;;;;;;5153402;27;20094;-72
2022/10/22 05:00:36;;;;;;;25.70;14.45;;;;;;;;;;5152885;27;20039;-69
2022/10/22 05:03:02;;;;;;;26.70;15.55;;;;;;;;;;5165872;27;20046;-70
2022/10/22 05:05:28;;;;;;;27.20;14.95;;;;;;;;;;5152627;27;20069;-71
2022/10/22 05:07:54;;;;;;;28.25;14.93;;;;;;;;;;5163907;27;20096;-72
2022/10/22 05:10:20;;;;;;;30.10;15.25;;;;;;;;;;5144126;27;20042;-72
2022/10/22 05:12:46;;;;;;;25.40;15.13;;;;;;;;;;5163870;27;20046;-74
2022/10/22 05:15:12;;;;;;;27.40;15.32;;;;;;;;;;5165871;27;20114;-72
2022/10/22 05:17:38;;;;;;;24.15;14.43;;;;;;;;;;5164437;27;20125;-69
2022/10/22 05:20:05;;;;;;;22.80;15.32;;;;;;;;;;5153977;27;20411;-73
2022/10/22 05:22:31;;;;;;;28.02;15.35;;;;;;;;;;5152033;27;20046;-71
2022/10/22 05:24:57;;;;;;;27.42;14.65;;;;;;;;;;5152802;27;20103;-72
2022/10/22 05:27:24;;;;;;;27.58;15.82;;;;;;;;;;5133150;27;20147;-71
2022/10/22 05:29:50;;;;;;;26.20;15.85;;;;;;;;;;5151960;27;20051;-72
2022/10/22 05:32:16;;;;;;;26.55;15.30;;;;;;;;;;5163329;27;20110;-72
2022/10/22 05:34:42;;;;;;;25.40;14.20;;;;;;;;;;5173461;27;20110;-71
2022/10/22 05:37:08;;;;;;;25.60;15.52;;;;;;;;;;5154460;27;20142;-71
2022/10/22 05:39:35;;;;;;;25.30;14.52;;;;;;;;;;5166140;27;20113;-71
2022/10/22 05:42:03;;;;;;;24.83;15.73;;;;;;;;;;5167398;27;20057;-71
2022/10/22 05:44:30;;;;;;;25.50;15.02;;;;;;;;;;5151938;27;20366;-74
2022/10/22 05:46:56;;;;;;;29.48;15.70;;;;;;;;;;5196195;27;20061;-74
2022/10/22 05:49:22;;;;;;;29.05;15.60;;;;;;;;;;5189255;27;20069;-72
2022/10/22 05:51:48;;;;;;;27.25;14.18;;;;;;;;;;5136396;27;20436;-72
2022/10/22 05:54:16;;;;;;;28.08;14.93;;;;;;;;;;5152052;27;20473;-73
2022/10/22 05:56:42;;;;;;;26.90;14.95;;;;;;;;;;5151767;27;20035;-70
2022/10/22 05:59:09;;;;;;;27.83;15.23;;;;;;;;;;5152033;27;20050;-71
2022/10/22 06:01:35;;;;;;;26.35;14.85;;;;;;;;;;5154512;27;20039;-71
2022/10/22 06:04:03;;;;;;;26.65;14.80;;;;;;;;;;5151197;27;20491;-71
2022/10/22 06:06:46;;;;;;;26.13;15.60;;;;;;;;;;5157779;27;20077;-71
2022/10/22 06:09:19;;;;;;;26.67;15.90;;;;;;;;;;5133602;27;20038;-71
2022/10/22 06:11:45;;;;;;;31.90;15.55;;;;;;;;;;5151940;27;20042;-71
2022/10/22 06:14:12;;;;;;;24.33;15.02;;;;;;;;;;5151586;27;20450;-73
2022/10/22 06:16:38;;;;;;;27.08;15.60;;;;;;;;;;5157956;27;20125;-70
2022/10/22 06:19:04;;;;;;;25.00;14.73;;;;;;;;;;5165785;27;20041;-69
2022/10/22 06:21:31;;;;;;;24.25;14.68;;;;;;;;;;5150925;27;20051;-69
2022/10/22 06:24:01;;;;;;;26.10;14.98;;;;;;;;;;5152293;27;20398;-70
2022/10/22 06:26:27;;;;;;;26.38;14.52;;;;;;;;;;5150999;27;20133;-70
2022/10/22 06:28:55;;;;;;;30.63;16.38;;;;;;;;;;5160892;27;20078;-70
2022/10/22 06:31:21;;;;;;;28.98;15.55;;;;;;;;;;5163126;27;20042;-72
2022/10/22 06:33:47;;;;;;;26.80;15.35;;;;;;;;;;5160498;27;20054;-71
2022/10/22 06:36:16;;;;;;;34.17;16.25;;;;;;;;;;5151062;27;20058;-72
2022/10/22 06:38:43;;;;;;;24.45;15.18;;;;;;;;;;5154742;27;20133;-70
2022/10/22 06:41:10;;;;;;;26.02;15.50;;;;;;;;;;5164592;27;20042;-70
2022/10/22 06:43:37;;;;;;;29.73;16.40;;;;;;;;;;5156105;27;20069;-72
2022/10/22 06:46:04;;;;;;;27.83;16.35;;;;;;;;;;5166929;27;20053;-68
2022/10/22 06:48:31;;;;;;;26.20;15.50;;;;;;;;;;5153100;27;20142;-69
2022/10/22 06:51:01;;;;;;;26.35;15.68;;;;;;;;;;5134344;27;20451;-72
2022/10/22 06:53:27;;;;;;;26.77;15.35;;;;;;;;;;5170021;27;20042;-70
2022/10/22 06:55:53;;;;;;;27.50;15.68;;;;;;;;;;5151808;27;20065;-70
2022/10/22 06:58:19;;;;;;;25.38;15.43;;;;;;;;;;5152664;27;20054;-70
2022/10/22 07:00:45;;;;;;;27.35;15.93;;;;;;;;;;5151339;27;20111;-69
2022/10/22 07:03:12;;;;;;;28.73;16.08;;;;;;;;;;5150821;27;20516;-72
2022/10/22 07:05:38;;;;;;;26.15;15.13;;;;;;;;;;5154900;27;20161;-69
2022/10/22 07:08:05;;;;;;;24.30;15.27;;;;;;;;;;5165168;27;20092;-68
2022/10/22 07:10:31;;;;;;;30.00;16.13;;;;;;;;;;5166567;27;20038;-70
2022/10/22 07:12:57;;;;;;;23.05;14.80;;;;;;;;;;5133740;27;20088;-73
2022/10/22 07:15:23;;;;;;;;;;;;;;;;;;5151713;27;20039;-70
2022/10/22 07:17:50;;;;;;;28.75;15.32;;;;;;;;;;5131017;27;20031;-67
2022/10/22 07:20:17;;;;;;;27.98;15.13;;;;;;;;;;5150424;27;20137;-70
2022/10/22 07:22:44;;;;;;;24.90;14.10;;;;;;;;;;5152408;27;20042;-72
2022/10/22 07:25:10;;;;;;;30.95;14.13;;;;;;;;;;5150086;27;20378;-72
2022/10/22 07:27:36;;;;;;;24.38;13.65;;;;;;;;;;5164897;27;20091;-70
2022/10/22 07:30:02;;;;;;;;;;;;;;;;;;5152103;27;20439;-70
2022/10/22 07:32:28;;;;;;;24.65;13.90;;;;;;;;;;5161890;27;19967;-70
2022/10/22 07:34:54;;;;;;;24.20;13.88;;;;;;;;;;5162878;27;20250;-70
2022/10/22 07:37:20;;;;;;;24.55;13.57;;;;;;;;;;5161357;27;20118;-70
2022/10/22 07:39:50;;;;;;;28.83;14.48;;;;;;;;;;5141940;27;20046;-70
2022/10/22 07:42:16;;;;;;;25.95;13.13;;;;;;;;;;5132316;27;20050;-70
2022/10/22 07:44:42;;;;;;;21.75;13.13;;;;;;;;;;5164928;27;20478;-71
2022/10/22 07:47:08;;;;;;;25.25;12.60;;;;;;;;;;5169370;27;20500;-70
2022/10/22 07:49:34;;;;;;;28.73;13.35;;;;;;;;;;5163711;27;20117;-70
2022/10/22 07:52:00;;;;;;;24.15;13.52;;;;;;;;;;5161896;27;20046;-72
2022/10/22 07:54:26;;;;;;;27.05;13.63;;;;;;;;;;5164288;27;20052;-71
2022/10/22 07:56:52;;;;;;;25.27;12.98;;;;;;;;;;5160410;27;20034;-71
2022/10/22 07:59:18;;;;;;;27.83;13.52;;;;;;;;;;5168997;27;20046;-66
2022/10/22 08:01:45;;;;;;;26.45;12.73;;;;;;;;;;5154785;27;20150;-70
2022/10/22 08:04:11;;;;;;;32.78;13.30;;;;;;;;;;5142874;27;20114;-69
2022/10/22 08:06:38;;;;;;;22.20;12.85;;;;;;;;;;5165837;27;20035;-69
2022/10/22 08:09:04;;;;;;;29.50;13.63;;;;;;;;;;5161010;27;20091;-71
2022/10/22 08:11:32;;;;;;;26.17;13.52;;;;;;;;;;5166295;27;20061;-70
2022/10/22 08:13:58;;;;;;;25.95;12.88;;;;;;;;;;5164724;27;20073;-70
2022/10/22 08:16:24;;;;;;;28.23;13.20;;;;;;;;;;5146194;27;20072;-69
2022/10/22 08:18:50;;;;;;;23.65;13.25;;;;;;;;;;5158767;27;20143;-69
2022/10/22 08:21:16;;;;;;;;;;;;;;;;;;5158858;27;20106;-69
2022/10/22 08:23:43;;;;;;;25.58;11.48;;;;;;;;;;5148419;27;19927;-71
2022/10/22 08:26:09;;;;;;;;;;;;;;;;;;5168697;27;20038;-70
2022/10/22 08:28:36;;;;;;;24.65;12.57;;;;;;;;;;5167379;27;19918;-70
2022/10/22 08:31:06;;;;;;;24.67;12.43;;;;;;;;;;5170680;27;20045;-70
2022/10/22 08:33:32;;;;;;;24.50;12.13;;;;;;;;;;5170283;27;20110;-69
2022/10/22 08:35:58;;;;;;;23.30;12.10;;;;;;;;;;5169159;27;20118;-70
2022/10/22 08:38:24;;;;;;;23.67;12.13;;;;;;;;;;5151938;27;20053;-69
2022/10/22 08:40:56;;;;;;;26.65;11.00;;;;;;;;;;5169668;27;20145;-74
2022/10/22 08:43:28;;;;;;;25.30;10.57;;;;;;;;;;5166842;27;20058;-71
2022/10/22 08:45:57;;;;;;;23.10;10.95;;;;;;;;;;5164005;27;20054;-71
2022/10/22 08:48:31;;;;;;;22.15;10.60;;;;;;;;;;5163437;27;20054;-71
2022/10/22 08:50:58;;;;;;;22.08;10.60;;;;;;;;;;5159278;27;20070;-70
2022/10/22 08:53:34;;;;;;;25.38;10.50;;;;;;;;;;5159358;27;20130;-70
2022/10/22 08:56:00;;;;;;;23.77;10.52;;;;;;;;;;5153321;27;20050;-71
2022/10/22 08:58:58;;;;;;;28.10;10.02;;;;;;;;;;5158455;27;20160;-72
2022/10/22 09:01:36;;;;;;;21.98;9.88;;;;;;;;;;5104429;27;20069;-72
2022/10/22 09:04:06;;;;;;;21.95;9.52;;;;;;;;;;5169076;27;20062;-84
2022/10/22 09:06:33;;;;;;;20.27;9.27;;;;;;;;;;5160059;27;20066;-70
2022/10/22 09:09:00;;;;;;;21.60;8.75;;;;;;;;;;5162954;27;20038;-74
2022/10/22 09:11:34;;;;;;;21.60;8.85;;;;;;;;;;5157124;27;20062;-70
2022/10/22 09:14:01;;;;;;;27.55;9.13;;;;;;;;;;5161651;27;20061;-65
2022/10/22 09:16:36;;;;;;;23.52;8.50;;;;;;;;;;5161950;27;20118;-69
2022/10/22 09:19:40;;;;;;;29.48;9.02;;;;;;;;;;5169705;27;20115;-71
2022/10/22 09:22:18;;;;;;;20.50;8.52;;;;;;;;;;5067624;28;20048;-67
2022/10/22 09:24:46;;;;;;;25.10;8.45;;;;;;;;;;5048617;28;20064;-72
2022/10/22 09:27:14;;;;;;;23.65;8.75;;;;;;;;;;5114373;27;20155;-69
2022/10/22 09:29:40;;;;;;;21.40;7.45;;;;;;;;;;5158491;27;20055;-68
2022/10/22 09:32:06;;;;;;;25.85;7.93;;;;;;;;;;5115291;27;20391;-68
2022/10/22 09:34:32;;;;;;;19.02;7.60;;;;;;;;;;5154242;27;20047;-69
2022/10/22 09:36:59;;;;;;;20.67;7.85;;;;;;;;;;5134499;27;20142;-71
2022/10/22 09:39:27;;;;;;;21.25;8.55;;;;;;;;;;5150728;27;20136;-68
2022/10/22 09:41:53;;;;;;;23.27;8.07;;;;;;;;;;5165185;27;20057;-69
2022/10/22 09:44:20;;;;;;;22.92;8.25;;;;;;;;;;5151631;27;20137;-73
2022/10/22 09:46:46;;;;;;;21.55;9.23;;;;;;;;;;5160505;27;20121;-73
2022/10/22 09:49:16;;;;;;;23.48;8.85;;;;;;;;;;5171813;27;20054;-69
2022/10/22 09:51:53;;;;;;;21.48;8.07;;;;;;;;;;5156575;27;20371;-72
2022/10/22 09:54:22;;;;;;;19.98;8.73;;;;;;;;;;5133332;27;20061;-82
2022/10/22 09:56:58;;;;;;;22.05;9.15;;;;;;;;;;5152793;27;20463;-75
2022/10/22 09:59:26;;;;;;;24.75;8.80;;;;;;;;;;5151847;27;20138;-83
2022/10/22 10:02:10;;;;;;;25.38;9.10;;;;;;;;;;5158805;27;20069;-71
2022/10/22 10:04:41;;;;;;;27.35;8.70;;;;;;;;;;5170166;27;20050;-73
2022/10/22 10:07:21;;;;;;;24.45;8.82;;;;;;;;;;5172170;27;20485;-70
2022/10/22 10:09:47;;;;;;;26.38;8.18;;;;;;;;;;5172100;27;20554;-76
2022/10/22 10:12:24;;;;;;;25.00;9.05;;;;;;;;;;5151161;27;20468;-69
2022/10/22 10:14:53;;;;;;;20.73;8.35;;;;;;;;;;5149658;27;20074;-69
2022/10/22 10:17:31;;;;;;;20.45;8.32;;;;;;;;;;5172456;27;20097;-68
2022/10/22 10:20:13;;;;;;;23.42;9.30;;;;;;;;;;5152098;27;20065;-70
2022/10/22 10:22:39;;;;;;;18.17;9.00;;;;;;;;;;5167971;27;20073;-72
2022/10/22 10:25:22;;;;;;;22.58;9.25;;;;;;;;;;5162955;27;20461;-71
2022/10/22 10:27:56;;;;;;;21.15;9.25;;;;;;;;;;5164235;27;20061;-76
2022/10/22 10:30:22;;;;;;;22.50;9.63;;;;;;;;;;5171583;27;20054;-72
2022/10/22 10:32:51;;;;;;;21.27;10.20;;;;;;;;;;5171979;27;20053;-69
2022/10/22 10:35:23;;;;;;;24.83;10.00;;;;;;;;;;5172231;27;20108;-73
2022/10/22 10:37:57;;;;;;;21.63;9.20;;;;;;;;;;5167970;27;20424;-71
2022/10/22 10:40:33;;;;;;;20.40;9.60;;;;;;;;;;5169420;27;20061;-68
2022/10/22 10:43:09;;;;;;;26.70;10.00;;;;;;;;;;5154419;27;20160;-73
2022/10/22 10:45:41;;;;;;;23.58;10.70;;;;;;;;;;5173327;27;20342;-71
2022/10/22 10:48:10;;;;;;;21.33;9.85;;;;;;;;;;5168834;27;20058;-76
2022/10/22 10:50:49;;;;;;;21.63;9.93;;;;;;;;;;5172145;27;20061;-73
2022/10/22 10:53:17;;;;;;;26.85;10.70;;;;;;;;;;5171629;27;20046;-81
2022/10/22 10:55:57;;;;;;;26.40;10.18;;;;;;;;;;5172822;27;20153;-74
2022/10/22 10:58:47;;;;;;;24.63;10.20;;;;;;;;;;5167871;27;20035;-72
2022/10/22 11:01:24;;;;;;;21.77;10.35;;;;;;;;;;5163471;27;20046;-72
2022/10/22 11:04:08;;;;;;;25.52;10.27;;;;;;;;;;5171427;27;20053;-70
2022/10/22 11:06:37;;;;;;;21.75;10.18;;;;;;;;;;5141578;27;20118;-73
2022/10/22 11:09:16;;;;;;;22.58;9.82;;;;;;;;;;5148634;27;20035;-73
2022/10/22 11:11:45;;;;;;;21.55;10.55;;;;;;;;;;5149895;27;20130;-71
2022/10/22 11:14:20;;;;;;;23.38;10.52;;;;;;;;;;5149438;27;20450;-69
2022/10/22 11:17:01;;;;;;;22.33;10.57;;;;;;;;;;5149936;27;20051;-70
2022/10/22 11:19:38;;;;;;;20.02;10.52;;;;;;;;;;5149609;27;20039;-74
2022/10/22 11:22:04;;;;;;;;;;;;;;;;;;5168487;27;20464;-71
2022/10/22 11:24:39;;;;;;;23.15;10.57;;;;;;;;;;5170365;27;19963;-72
2022/10/22 11:27:05;;;;;;;21.80;10.27;;;;;;;;;;5169469;27;20430;-71
2022/10/22 11:29:34;;;;;;;24.25;11.27;;;;;;;;;;5161811;27;20377;-71
2022/10/22 11:32:01;;;;;;;21.58;10.98;;;;;;;;;;5131913;27;20110;-71
2022/10/22 11:34:33;;;;;;;28.95;11.98;;;;;;;;;;5150393;27;20086;-73
2022/10/22 11:36:59;;;;;;;22.17;11.32;;;;;;;;;;5150495;27;20066;-70
2022/10/22 11:39:30;;;;;;;25.33;12.75;;;;;;;;;;5149784;27;20078;-73
2022/10/22 11:41:57;;;;;;;22.23;11.98;;;;;;;;;;5164872;27;20053;-72
2022/10/22 11:44:24;;;;;;;24.73;12.15;;;;;;;;;;5171054;27;20058;-70
2022/10/22 11:46:58;;;;;;;26.25;12.18;;;;;;;;;;5152654;27;20083;-71
2022/10/22 11:49:26;;;;;;;24.00;12.38;;;;;;;;;;5171211;27;20048;-74
2022/10/22 11:52:05;;;;;;;27.27;12.18;;;;;;;;;;5161959;27;20134;-84
2022/10/22 11:54:36;;;;;;;26.60;12.45;;;;;;;;;;5132783;27;20363;-88
2022/10/22 11:57:14;;;;;;;25.90;12.63;;;;;;;;;;5154733;27;20047;-68
2022/10/22 11:59:44;;;;;;;26.48;12.85;;;;;;;;;;5154483;27;20129;-72
2022/10/22 12:02:29;;;;;;;26.15;13.80;;;;;;;;;;5144145;27;20046;-69
2022/10/22 12:05:15;;;;;;;29.17;14.10;;;;;;;;;;5154840;27;20066;-70
2022/10/22 12:07:55;;;;;;;28.30;14.38;;;;;;;;;;5154350;27;20419;-74
2022/10/22 12:10:24;;;;;;;26.95;14.63;;;;;;;;;;5134677;27;20122;-72
2022/10/22 12:13:09;;;;;;;26.55;13.75;;;;;;;;;;5167983;27;20074;-82
2022/10/22 12:15:45;;;;;;;24.33;14.30;;;;;;;;;;5159297;27;20046;-75
2022/10/22 12:18:12;;;;;;;26.80;14.75;;;;;;;;;;5166007;27;20042;-75
2022/10/22 12:20:38;;;;;;;28.52;13.00;;;;;;;;;;5147260;27;20382;-80
2022/10/22 12:23:04;;;;;;;29.88;13.77;;;;;;;;;;5150446;27;20397;-80
2022/10/22 12:25:31;;;;;;;24.90;12.18;;;;;;;;;;5148130;27;20406;-85
2022/10/22 12:27:59;;;;;;;27.90;13.02;;;;;;;;;;5152780;27;20046;-82
2022/10/22 12:30:25;;;;;;;25.00;12.50;;;;;;;;;;5167201;27;20042;-81
2022/10/22 12:32:53;;;;;;;25.58;12.23;;;;;;;;;;5169681;27;20090;-85
2022/10/22 12:35:20;;;;;;;23.25;12.32;;;;;;;;;;5161310;27;20058;-89
2022/10/22 12:38:11;;;;;;;26.70;12.15;;;;;;;;;;5170201;27;20130;-89
2022/10/22 12:40:40;;;;;;;26.75;10.73;;;;;;;;;;5173090;27;20129;-70
2022/10/22 12:43:13;;;;;;;25.42;10.95;;;;;;;;;;5171705;27;20121;-76
2022/10/22 12:45:42;;;;;;;21.23;11.20;;;;;;;;;;5170072;27;21556;-81
2022/10/22 12:48:18;;;;;;;24.27;10.25;;;;;;;;;;5169938;27;20175;-82
2022/10/22 12:50:46;;;;;;;21.88;11.68;;;;;;;;;;5168682;27;20073;-76
2022/10/22 12:53:18;;;;;;;28.20;12.20;;;;;;;;;;5147707;27;20075;-77
2022/10/22 12:55:49;;;;;;;24.83;12.65;;;;;;;;;;5142913;27;20099;-75
2022/10/22 12:58:20;;;;;;;27.48;12.48;;;;;;;;;;5134652;27;20050;-77
2022/10/22 13:00:47;;;;;;;27.52;12.23;;;;;;;;;;5156652;27;20503;-83
2022/10/22 13:03:27;;;;;;;29.83;12.20;;;;;;;;;;5170055;27;20077;-77
2022/10/22 13:05:53;;;;;;;28.05;11.30;;;;;;;;;;5156064;27;20063;-74
2022/10/22 13:08:26;;;;;;;23.58;9.63;;;;;;;;;;5178176;27;20078;-75
2022/10/22 13:11:06;;;;;;;20.73;8.93;;;;;;;;;;5178733;27;20052;-73
2022/10/22 13:13:33;;;;;;;23.88;8.15;;;;;;;;;;5159982;27;20099;-72
2022/10/22 13:16:32;;;;;;;19.15;7.28;;;;;;;;;;5178493;27;20046;-72
2022/10/22 13:18:58;;;;;;;21.20;8.38;;;;;;;;;;5121210;27;20081;-79
2022/10/22 13:21:25;;;;;;;18.70;8.32;;;;;;;;;;5178445;27;20125;-80
2022/10/22 13:24:01;;;;;;;23.60;8.55;;;;;;;;;;5178464;27;20054;-75
2022/10/22 13:26:32;;;;;;;22.40;8.95;;;;;;;;;;5178008;27;20103;-72
2022/10/22 13:29:00;;;;;;;19.52;8.32;;;;;;;;;;5178364;27;20050;-75
2022/10/22 13:31:36;;;;;;;19.88;7.30;;;;;;;;;;5178042;27;20078;-71
2022/10/22 13:34:05;;;;;;;24.67;7.28;;;;;;;;;;5160630;27;20046;-75
2022/10/22 13:36:31;;;;;;;15.18;6.35;;;;;;;;;;5178105;27;20038;-76
2022/10/22 13:38:57;;;;;;;20.90;6.63;;;;;;;;;;5177992;27;20046;-78
2022/10/22 13:41:23;;;;;;;;;;;;;;;;;;5178187;27;20042;-73
2022/10/22 13:43:50;;;;;;;16.73;6.07;;;;;;;;;;5159813;27;19922;-74
2022/10/22 13:46:16;;;;;;;19.02;5.20;;;;;;;;;;5158525;27;20099;-77
2022/10/22 13:48:42;;;;;;;13.57;4.20;;;;;;;;;;5159821;27;20046;-76
2022/10/22 13:51:08;;;;;;;;;;;;;;;;;;5160393;27;20137;-73
2022/10/22 13:53:35;;;;;;;16.17;4.20;;;;;;;;;;5177897;27;19925;-74
2022/10/22 13:56:01;;;;;;;14.80;4.78;;;;;;;;;;5177824;27;20041;-75
2022/10/22 13:58:27;;;;;;;16.75;4.25;;;;;;;;;;5178009;27;20045;-74
2022/10/22 14:00:57;;;;;;;14.35;3.95;;;;;;;;;;5177762;27;20074;-80
2022/10/22 14:03:25;;;;;;;17.30;3.97;;;;;;;;;;5177315;27;20125;-72
2022/10/22 14:05:51;;;;;;;17.73;4.55;;;;;;;;;;5177216;27;20465;-78
2022/10/22 14:08:19;;;;;;;16.02;4.65;;;;;;;;;;5177392;27;20043;-75
2022/10/22 14:10:45;;;;;;;17.08;5.03;;;;;;;;;;5177043;27;20053;-75
2022/10/22 14:13:12;;;;;;;18.35;5.35;;;;;;;;;;5177121;27;20073;-70
2022/10/22 14:15:39;;;;;;;17.90;5.40;;;;;;;;;;5177371;27;20425;-73
2022/10/22 14:18:06;;;;;;;18.85;5.65;;;;;;;;;;5177059;27;20046;-75
2022/10/22 14:20:34;;;;;;;16.65;5.07;;;;;;;;;;5176865;27;20113;-76
2022/10/22 14:23:02;;;;;;;19.27;5.07;;;;;;;;;;5177292;27;20045;-73
2022/10/22 14:25:30;;;;;;;13.07;4.55;;;;;;;;;;5158240;27;20489;-83
2022/10/22 14:27:56;;;;;;;16.48;4.70;;;;;;;;;;5176857;27;20050;-79
2022/10/22 14:30:22;;;;;;;;;;;;;;;;;;5177598;27;20054;-78
2022/10/22 14:32:48;;;;;;;15.63;3.92;;;;;;;;;;5177040;27;20021;-75
2022/10/22 14:35:19;;;;;;;17.67;3.72;;;;;;;;;;5141494;27;20141;-82
2022/10/22 14:37:45;;;;;;;12.25;3.72;;;;;;;;;;5176968;27;20394;-73